Oski — WYD3004 — position and weather

sailwx.info

Track history (hours):
 
Tides and Currents Weather Stations Pressure Air Temp Water Temp Dewpoint Dewpoint Depression Visibility Wind Speed Wind Dir Waves Ship Positions

Oski

Owner: BLUE & GOLD FLEET, SAN FRANCISCO, CA. More information available from US FCC via Universal Licensing System and Coast Guard Vessel Documentation Center.

Last reported at 2017-Apr-26 00:28 UTC. Time now 2017-Apr-26 13:38 UTC.
Position N 37°49' W 122°25'.

Length 24 m; draft 2 m.

Type: Passenger vessel. MMSI: 366985320.

Date/timePositionNaut miles runAvg speedWind from/ knotsBaromVisibWave heightAir tempDewpointWater temp
2017-Apr-26 00:28N 37°49' W 122°25'2 3.9
2017-Apr-26 00:00N 37°49' W 122°27'2 3.6
2017-Apr-25 23:30N 37°49' W 122°25'1 1.5
2017-Apr-25 23:00N 37°49' W 122°25'2 4.7
2017-Apr-25 22:30N 37°49' W 122°28'2 4.9
2017-Apr-25 22:00N 37°49' W 122°25'0 0.0
2017-Apr-25 21:30N 37°49' W 122°25'1 1.7
2017-Apr-25 21:00N 37°49' W 122°25'2 4.4
2017-Apr-25 20:30N 37°49' W 122°27'2 4.5
2017-Apr-25 20:00N 37°49' W 122°25'1 2.5
2017-Apr-25 19:30N 37°50' W 122°25'2 3.6
2017-Apr-25 19:00N 37°50' W 122°28'3 5.1
2017-Apr-25 18:30N 37°49' W 122°25'1 1.1
2017-Apr-25 18:00N 37°49' W 122°25'2 3.8
2017-Apr-25 17:30N 37°49' W 122°27'2 3.8
2017-Apr-25 17:00N 37°49' W 122°25'0 0.0
2017-Apr-23 21:42N 37°49' W 122°25'0 0.2
2017-Apr-23 21:30N 37°49' W 122°25'0 0.0
2017-Apr-23 21:00N 37°49' W 122°25'1 1.2
2017-Apr-23 20:30N 37°49' W 122°24'2 4.6
2017-Apr-23 20:00N 37°47' W 122°23'3 6.9
2017-Apr-23 19:30N 37°50' W 122°25'3 5.1
2017-Apr-23 19:00N 37°51' W 122°28'2 4.5
2017-Apr-23 18:30N 37°49' W 122°27'2 3.7
2017-Apr-23 18:00N 37°49' W 122°25'0 0.0
2017-Apr-23 17:30N 37°49' W 122°25'0 0.0
2017-Apr-23 17:00N 37°49' W 122°25'0 0.0
2017-Apr-23 16:30N 37°49' W 122°25'0 0.0
2017-Apr-23 00:24N 37°49' W 122°25'2 5.6
2017-Apr-23 00:01N 37°49' W 122°27'2 4.4
2017-Apr-22 23:30N 37°49' W 122°25'1 1.8
2017-Apr-22 23:00N 37°49' W 122°25'2 3.0
2017-Apr-22 22:30N 37°49' W 122°27'2 3.6
2017-Apr-22 22:00N 37°49' W 122°25'0 0.0
2017-Apr-22 21:30N 37°49' W 122°25'1 1.6
2017-Apr-22 21:00N 37°49' W 122°25'2 4.7
2017-Apr-22 20:30N 37°49' W 122°28'3 5.1
2017-Apr-22 20:00N 37°49' W 122°25'1 1.5
2017-Apr-22 19:30N 37°49' W 122°25'2 3.8
2017-Apr-22 19:00N 37°50' W 122°27'2 4.3
2017-Apr-22 18:30N 37°49' W 122°25'1 1.1
2017-Apr-22 18:00N 37°49' W 122°25'2 4.7
2017-Apr-22 17:30N 37°49' W 122°28'2 4.8
2017-Apr-22 17:00N 37°49' W 122°25'0 0.0
2017-Apr-22 01:53N 37°49' W 122°25'2 5.4
2017-Apr-22 01:30N 37°49' W 122°27'2 4.1
2017-Apr-22 01:00N 37°49' W 122°25'0 0.0
2017-Apr-22 00:31N 37°49' W 122°25'2 4.6
2017-Apr-22 00:00N 37°49' W 122°27'2 4.8
2017-Apr-21 23:31N 37°49' W 122°25'1 1.4
2017-Apr-21 23:00N 37°49' W 122°25'2 3.3
2017-Apr-21 22:30N 37°49' W 122°27'2 3.5
2017-Apr-21 22:00N 37°49' W 122°25'0 0.0
2017-Apr-21 21:30N 37°49' W 122°25'1 2.1
2017-Apr-21 21:00N 37°50' W 122°25'2 3.5
2017-Apr-21 20:30N 37°49' W 122°27'2 4.0
2017-Apr-21 20:00N 37°49' W 122°25'1 1.7
2017-Apr-21 19:30N 37°49' W 122°25'2 3.8
2017-Apr-21 19:00N 37°49' W 122°27'2 4.2
2017-Apr-21 18:30N 37°49' W 122°25'1 1.2
2017-Apr-21 18:00N 37°49' W 122°25'2 4.6
2017-Apr-21 17:30N 37°49' W 122°28'2 4.8
2017-Apr-21 17:00N 37°49' W 122°25'0 0.0
2017-Apr-21 16:30N 37°49' W 122°25'0 0.0
2017-Apr-21 16:00N 37°49' W 122°25'0 0.0
2017-Apr-21 15:29N 37°49' W 122°25'0 0.0
2017-Apr-21 15:00N 37°49' W 122°25'0 0.0
2017-Apr-21 14:30N 37°49' W 122°25'0 0.0
2017-Apr-21 00:23N 37°49' W 122°25'2 5.6
2017-Apr-21 00:01N 37°49' W 122°27'2 4.2
2017-Apr-20 23:30N 37°49' W 122°25'0 0.8
2017-Apr-20 23:01N 37°49' W 122°24'2 4.9
2017-Apr-20 22:30N 37°49' W 122°27'2 4.2
2017-Apr-20 22:01N 37°49' W 122°25'0 0.0
2017-Apr-20 21:30N 37°49' W 122°25'1 2.0
2017-Apr-20 21:00N 37°49' W 122°25'2 3.1
2017-Apr-20 20:30N 37°49' W 122°27'2 3.7
2017-Apr-20 20:00N 37°49' W 122°25'1 1.5
2017-Apr-20 19:30N 37°49' W 122°25'2 4.2
2017-Apr-20 19:01N 37°49' W 122°27'2 4.4
2017-Apr-20 18:31N 37°49' W 122°25'1 2.1
2017-Apr-20 18:01N 37°50' W 122°25'1 2.9
2017-Apr-20 17:30N 37°49' W 122°27'2 3.5
2017-Apr-20 17:00N 37°49' W 122°25'0 0.0
2017-Apr-20 02:44N 37°49' W 122°25'0 1.0
2017-Apr-20 02:30N 37°49' W 122°25'510.4
2017-Apr-20 02:00N 37°48' W 122°18'0 0.8
2017-Apr-20 01:31N 37°48' W 122°19'4 7.7
2017-Apr-20 01:01N 37°48' W 122°24'3 5.4
2017-Apr-20 00:31N 37°48' W 122°20'2 4.0
2017-Apr-20 00:01N 37°47' W 122°18'4 7.5
2017-Apr-19 23:30N 37°48' W 122°22'2 3.9
2017-Apr-19 23:01N 37°49' W 122°25'0 0.0
2017-Apr-19 22:30N 37°49' W 122°25'1 1.5
2017-Apr-19 22:01N 37°49' W 122°25'2 3.6
2017-Apr-19 21:31N 37°49' W 122°27'2 3.4
2017-Apr-19 21:00N 37°49' W 122°25'0 0.0
2017-Apr-19 20:30N 37°49' W 122°25'3 5.7
2017-Apr-19 20:01N 37°49' W 122°28'3 5.6
2017-Apr-19 19:31N 37°49' W 122°25'0 0.0
2017-Apr-19 18:59N 37°49' W 122°25'0 0.0
2017-Apr-19 18:31N 37°49' W 122°25'1 1.7
2017-Apr-19 18:00N 37°48' W 122°24'0 0.0
2017-Apr-17 18:58N 37°48' W 122°24'0 0.0
2017-Apr-17 18:27N 37°48' W 122°24'0 0.1
2017-Apr-17 17:58N 37°48' W 122°24'  
Track history (hours):
 
Tides and Currents Weather Stations Pressure Air Temp Water Temp Dewpoint Dewpoint Depression Visibility Wind Speed Wind Dir Waves Ship Positions

Oski

Owner: BLUE & GOLD FLEET, SAN FRANCISCO, CA. More information available from US FCC via Universal Licensing System and Coast Guard Vessel Documentation Center.

Last reported at 2017-Apr-26 00:28 UTC. Time now 2017-Apr-26 13:38 UTC.
Position N 37°49' W 122°25'.

Length 24 m; draft 2 m.

Type: Passenger vessel. MMSI: 366985320.

Date/timePositionNaut miles runAvg speedWind from/ knotsBaromVisibWave heightAir tempDewpointWater temp
2017-Apr-26 00:28N 37°49' W 122°25'2 3.9
2017-Apr-26 00:00N 37°49' W 122°27'2 3.6
2017-Apr-25 23:30N 37°49' W 122°25'1 1.5
2017-Apr-25 23:00N 37°49' W 122°25'2 4.7
2017-Apr-25 22:30N 37°49' W 122°28'2 4.9
2017-Apr-25 22:00N 37°49' W 122°25'0 0.0
2017-Apr-25 21:30N 37°49' W 122°25'1 1.7
2017-Apr-25 21:00N 37°49' W 122°25'2 4.4
2017-Apr-25 20:30N 37°49' W 122°27'2 4.5
2017-Apr-25 20:00N 37°49' W 122°25'1 2.5
2017-Apr-25 19:30N 37°50' W 122°25'2 3.6
2017-Apr-25 19:00N 37°50' W 122°28'3 5.1
2017-Apr-25 18:30N 37°49' W 122°25'1 1.1
2017-Apr-25 18:00N 37°49' W 122°25'2 3.8
2017-Apr-25 17:30N 37°49' W 122°27'2 3.8
2017-Apr-25 17:00N 37°49' W 122°25'0 0.0
2017-Apr-23 21:42N 37°49' W 122°25'0 0.2
2017-Apr-23 21:30N 37°49' W 122°25'0 0.0
2017-Apr-23 21:00N 37°49' W 122°25'1 1.2
2017-Apr-23 20:30N 37°49' W 122°24'2 4.6
2017-Apr-23 20:00N 37°47' W 122°23'3 6.9
2017-Apr-23 19:30N 37°50' W 122°25'3 5.1
2017-Apr-23 19:00N 37°51' W 122°28'2 4.5
2017-Apr-23 18:30N 37°49' W 122°27'2 3.7
2017-Apr-23 18:00N 37°49' W 122°25'0 0.0
2017-Apr-23 17:30N 37°49' W 122°25'0 0.0
2017-Apr-23 17:00N 37°49' W 122°25'0 0.0
2017-Apr-23 16:30N 37°49' W 122°25'0 0.0
2017-Apr-23 00:24N 37°49' W 122°25'2 5.6
2017-Apr-23 00:01N 37°49' W 122°27'2 4.4
2017-Apr-22 23:30N 37°49' W 122°25'1 1.8
2017-Apr-22 23:00N 37°49' W 122°25'2 3.0
2017-Apr-22 22:30N 37°49' W 122°27'2 3.6
2017-Apr-22 22:00N 37°49' W 122°25'0 0.0
2017-Apr-22 21:30N 37°49' W 122°25'1 1.6
2017-Apr-22 21:00N 37°49' W 122°25'2 4.7
2017-Apr-22 20:30N 37°49' W 122°28'3 5.1
2017-Apr-22 20:00N 37°49' W 122°25'1 1.5
2017-Apr-22 19:30N 37°49' W 122°25'2 3.8
2017-Apr-22 19:00N 37°50' W 122°27'2 4.3
2017-Apr-22 18:30N 37°49' W 122°25'1 1.1
2017-Apr-22 18:00N 37°49' W 122°25'2 4.7
2017-Apr-22 17:30N 37°49' W 122°28'2 4.8
2017-Apr-22 17:00N 37°49' W 122°25'0 0.0
2017-Apr-22 01:53N 37°49' W 122°25'2 5.4
2017-Apr-22 01:30N 37°49' W 122°27'2 4.1
2017-Apr-22 01:00N 37°49' W 122°25'0 0.0
2017-Apr-22 00:31N 37°49' W 122°25'2 4.6
2017-Apr-22 00:00N 37°49' W 122°27'2 4.8
2017-Apr-21 23:31N 37°49' W 122°25'1 1.4
2017-Apr-21 23:00N 37°49' W 122°25'2 3.3
2017-Apr-21 22:30N 37°49' W 122°27'2 3.5
2017-Apr-21 22:00N 37°49' W 122°25'0 0.0
2017-Apr-21 21:30N 37°49' W 122°25'1 2.1
2017-Apr-21 21:00N 37°50' W 122°25'2 3.5
2017-Apr-21 20:30N 37°49' W 122°27'2 4.0
2017-Apr-21 20:00N 37°49' W 122°25'1 1.7
2017-Apr-21 19:30N 37°49' W 122°25'2 3.8
2017-Apr-21 19:00N 37°49' W 122°27'2 4.2
2017-Apr-21 18:30N 37°49' W 122°25'1 1.2
2017-Apr-21 18:00N 37°49' W 122°25'2 4.6
2017-Apr-21 17:30N 37°49' W 122°28'2 4.8
2017-Apr-21 17:00N 37°49' W 122°25'0 0.0
2017-Apr-21 16:30N 37°49' W 122°25'0 0.0
2017-Apr-21 16:00N 37°49' W 122°25'0 0.0
2017-Apr-21 15:29N 37°49' W 122°25'0 0.0
2017-Apr-21 15:00N 37°49' W 122°25'0 0.0
2017-Apr-21 14:30N 37°49' W 122°25'0 0.0
2017-Apr-21 00:23N 37°49' W 122°25'2 5.6
2017-Apr-21 00:01N 37°49' W 122°27'2 4.2
2017-Apr-20 23:30N 37°49' W 122°25'0 0.8
2017-Apr-20 23:01N 37°49' W 122°24'2 4.9
2017-Apr-20 22:30N 37°49' W 122°27'2 4.2
2017-Apr-20 22:01N 37°49' W 122°25'0 0.0
2017-Apr-20 21:30N 37°49' W 122°25'1 2.0
2017-Apr-20 21:00N 37°49' W 122°25'2 3.1
2017-Apr-20 20:30N 37°49' W 122°27'2 3.7
2017-Apr-20 20:00N 37°49' W 122°25'1 1.5
2017-Apr-20 19:30N 37°49' W 122°25'2 4.2
2017-Apr-20 19:01N 37°49' W 122°27'2 4.4
2017-Apr-20 18:31N 37°49' W 122°25'1 2.1
2017-Apr-20 18:01N 37°50' W 122°25'1 2.9
2017-Apr-20 17:30N 37°49' W 122°27'2 3.5
2017-Apr-20 17:00N 37°49' W 122°25'0 0.0
2017-Apr-20 02:44N 37°49' W 122°25'0 1.0
2017-Apr-20 02:30N 37°49' W 122°25'510.4
2017-Apr-20 02:00N 37°48' W 122°18'0 0.8
2017-Apr-20 01:31N 37°48' W 122°19'4 7.7
2017-Apr-20 01:01N 37°48' W 122°24'3 5.4
2017-Apr-20 00:31N 37°48' W 122°20'2 4.0
2017-Apr-20 00:01N 37°47' W 122°18'4 7.5
2017-Apr-19 23:30N 37°48' W 122°22'2 3.9
2017-Apr-19 23:01N 37°49' W 122°25'0 0.0
2017-Apr-19 22:30N 37°49' W 122°25'1 1.5
2017-Apr-19 22:01N 37°49' W 122°25'2 3.6
2017-Apr-19 21:31N 37°49' W 122°27'2 3.4
2017-Apr-19 21:00N 37°49' W 122°25'0 0.0
2017-Apr-19 20:30N 37°49' W 122°25'3 5.7
2017-Apr-19 20:01N 37°49' W 122°28'3 5.6
2017-Apr-19 19:31N 37°49' W 122°25'0 0.0
2017-Apr-19 18:59N 37°49' W 122°25'0 0.0
2017-Apr-19 18:31N 37°49' W 122°25'1 1.7
2017-Apr-19 18:00N 37°48' W 122°24'0 0.0
2017-Apr-17 18:58N 37°48' W 122°24'0 0.0
2017-Apr-17 18:27N 37°48' W 122°24'0 0.1
2017-Apr-17 17:58N 37°48' W 122°24'  

Dump ship's entire track history